Terminal Aerodrome Forecast
Issued by NWS

Home | Current Version | Previous Version | Text Only | Print | Product List | Glossary Off
Versions: 1 2 3 4 5 6 7 8 9 10 11 12 13 14 15 16 17 18 19

793
FTUS43 KBIS 241454 AAA
TAFJMS
TAF AMD
KJMS 241454Z 2415/2512 28014G22KT P6SM SKC
     FM241800 28018G28KT P6SM BKN040
     FM250400 30010KT P6SM SCT025 BKN040=

USA.gov is the U.S. government's official web portal to all federal, state and local government web resources and services.